createdAt,value
2022-10-22T00:33:05.438Z,76.04
2022-10-22T00:45:56.322Z,76.73
2022-10-22T00:53:28.404Z,75.94
2022-10-22T01:01:22.033Z,76.47
2022-10-22T01:40:39.499Z,79.22
2022-10-22T01:44:44.676Z,78.52
2022-10-22T01:56:57.487Z,79.70
2022-10-22T02:19:57.831Z,81.96
2022-10-22T02:24:08.904Z,82.71
2022-10-22T02:28:21.536Z,82.83
2022-10-22T02:53:15.149Z,84.05
2022-10-22T03:05:13.418Z,84.97
2022-10-22T03:12:34.747Z,87.08
2022-10-22T03:28:43.489Z,90.09
2022-10-22T03:32:23.449Z,90.35
2022-10-22T03:52:24.624Z,91.49
2022-10-22T04:17:25.057Z,92.84
2022-10-22T04:28:43.212Z,93.38
2022-10-22T04:43:57.492Z,95.34
2022-10-22T04:52:12.388Z,95.57
2022-10-22T04:59:46.618Z,95.26
2022-10-22T05:24:09.449Z,97.60
2022-10-22T05:28:22.951Z,97.33
2022-10-22T05:35:51.615Z,97.12
2022-10-22T06:32:49.786Z,93.84
2022-10-22T06:36:26.487Z,92.73
2022-10-22T06:40:39.210Z,92.07
2022-10-22T06:49:39.422Z,89.23
2022-10-22T06:52:53.657Z,86.95
2022-10-22T06:56:42.275Z,84.96
2022-10-22T07:01:29.092Z,79.71
2022-10-22T07:05:54.148Z,78.03
2022-10-22T07:22:34.162Z,71.37
2022-10-22T07:29:36.460Z,72.52
2022-10-22T07:33:21.655Z,73.83
2022-10-22T07:36:56.697Z,74.47
2022-10-22T07:40:52.900Z,73.97
2022-10-22T07:44:44.715Z,73.42
2022-10-22T07:49:20.450Z,74.13
2022-10-22T07:53:01.447Z,73.46
2022-10-22T07:57:02.129Z,72.68
2022-10-22T08:00:54.729Z,72.90
2022-10-22T08:04:35.194Z,71.96
2022-10-22T08:08:14.431Z,70.91
2022-10-22T08:11:43.683Z,70.34
2022-10-22T08:15:01.727Z,69.91
2022-10-22T08:18:25.996Z,69.42
2022-10-22T08:21:52.402Z,69.69
2022-10-22T08:25:44.267Z,68.44
2022-10-22T08:29:31.757Z,67.91
2022-10-22T08:33:01.725Z,68.11
2022-10-22T08:36:25.087Z,65.68
2022-10-22T08:39:50.283Z,64.14
2022-10-22T08:43:49.147Z,62.31
2022-10-22T08:47:53.368Z,59.86
2022-10-22T08:51:41.785Z,59.67
2022-10-22T08:55:26.152Z,60.35
2022-10-22T08:59:26.608Z,61.00
2022-10-22T09:03:35.246Z,60.52
2022-10-22T09:07:13.800Z,60.33
2022-10-22T09:11:06.761Z,59.57
2022-10-22T09:14:32.878Z,61.32
2022-10-22T09:19:16.944Z,60.74
2022-10-22T09:23:14.879Z,60.21
2022-10-22T09:27:07.593Z,58.05
2022-10-22T09:31:21.841Z,59.51
2022-10-22T09:35:37.712Z,58.28
2022-10-22T09:40:37.954Z,58.65
2022-10-22T09:45:52.177Z,59.61
2022-10-22T09:48:53.580Z,59.05
2022-10-22T09:53:03.256Z,60.00
2022-10-22T09:59:32.556Z,59.32
2022-10-22T10:02:47.487Z,59.29
2022-10-22T10:06:56.683Z,59.07
2022-10-22T10:10:44.865Z,59.60
2022-10-22T10:15:07.341Z,58.82
2022-10-22T10:19:25.625Z,58.03
2022-10-22T10:23:31.921Z,58.32
2022-10-22T10:27:54.072Z,59.41
2022-10-22T10:32:10.609Z,58.97
2022-10-22T10:35:44.039Z,59.20
2022-10-22T10:39:52.903Z,59.39
2022-10-22T10:44:12.192Z,60.50
2022-10-22T10:48:19.658Z,58.68
2022-10-22T10:52:21.321Z,58.76
2022-10-22T10:56:50.171Z,58.73
2022-10-22T11:00:57.702Z,61.01
2022-10-22T11:05:04.909Z,61.28
2022-10-22T11:08:55.799Z,60.79
2022-10-22T11:12:50.662Z,60.51
2022-10-22T11:16:48.190Z,60.79
2022-10-22T11:21:18.662Z,61.12
2022-10-22T11:25:16.604Z,62.71
2022-10-22T11:29:03.441Z,61.42
2022-10-22T11:32:55.639Z,61.84
2022-10-22T11:37:05.922Z,61.91
2022-10-22T11:56:02.924Z,63.31
2022-10-22T12:13:34.151Z,59.75
2022-10-22T12:17:16.334Z,59.38
2022-10-22T12:21:04.038Z,59.66
2022-10-22T12:25:25.050Z,59.64
2022-10-22T12:29:35.823Z,60.08
2022-10-22T12:33:37.153Z,59.71
2022-10-22T12:37:59.547Z,60.83
2022-10-22T12:42:09.758Z,60.78
2022-10-22T12:46:06.678Z,61.44
2022-10-22T12:50:33.624Z,62.63
2022-10-22T12:54:26.064Z,62.68
2022-10-22T12:58:38.660Z,63.48
2022-10-22T13:02:47.371Z,63.98
2022-10-22T13:06:38.325Z,64.72
2022-10-22T13:10:44.538Z,65.84
2022-10-22T13:14:50.533Z,66.12
2022-10-22T13:18:54.976Z,66.19
2022-10-22T13:23:04.704Z,66.02
2022-10-22T13:27:12.183Z,65.49
2022-10-22T13:31:45.530Z,66.02
2022-10-22T13:35:41.332Z,66.13
2022-10-22T13:39:25.527Z,66.42
2022-10-22T13:43:29.034Z,66.40
2022-10-22T13:47:38.509Z,66.38
2022-10-22T13:51:47.203Z,66.69
2022-10-22T13:55:34.282Z,67.22
2022-10-22T13:59:12.660Z,68.06
2022-10-22T14:03:00.245Z,68.32
2022-10-22T14:07:37.125Z,68.91
2022-10-22T14:11:22.004Z,70.11
2022-10-22T14:15:34.870Z,70.97
2022-10-22T14:19:18.787Z,72.10
2022-10-22T14:23:28.874Z,71.25
2022-10-22T14:27:35.874Z,71.88
2022-10-22T14:31:44.519Z,72.61
2022-10-22T14:35:51.494Z,72.64
2022-10-22T14:40:02.899Z,71.80
2022-10-22T14:43:53.016Z,72.98
2022-10-22T14:47:55.275Z,73.14
2022-10-22T14:51:26.553Z,73.65
2022-10-22T14:55:12.083Z,73.94
2022-10-22T14:59:17.809Z,74.40
2022-10-22T15:03:04.547Z,74.82
2022-10-22T15:07:11.492Z,75.41
2022-10-22T15:11:02.816Z,75.57
2022-10-22T15:14:40.407Z,75.68
2022-10-22T15:18:24.762Z,75.50
2022-10-22T15:22:02.624Z,76.28
2022-10-22T15:29:31.676Z,76.62
2022-10-22T15:33:18.030Z,77.78
2022-10-22T15:37:12.806Z,77.62
2022-10-22T15:41:05.779Z,77.54
2022-10-22T15:44:35.443Z,77.94
2022-10-22T15:48:43.477Z,78.61
2022-10-22T15:52:58.805Z,80.55
2022-10-22T15:56:39.778Z,84.55
2022-10-22T16:00:49.221Z,87.82
2022-10-22T16:04:57.604Z,91.72
2022-10-22T16:08:40.381Z,93.68
2022-10-22T16:12:47.811Z,96.45
2022-10-22T16:16:23.661Z,99.49
2022-10-22T16:19:56.816Z,100.00
2022-10-22T16:23:35.627Z,100.00
2022-10-22T16:27:13.659Z,100.00
2022-10-22T16:30:54.940Z,100.00
2022-10-22T16:38:16.792Z,100.00
2022-10-22T16:42:22.907Z,100.00
2022-10-22T16:46:07.532Z,100.00
2022-10-22T16:49:56.885Z,100.00
2022-10-22T16:53:35.899Z,100.00
2022-10-22T16:58:00.382Z,100.00
2022-10-22T17:21:30.005Z,100.00
2022-10-22T17:25:19.977Z,100.00
2022-10-22T17:29:01.968Z,100.00
2022-10-22T17:36:35.867Z,100.00
2022-10-22T17:40:12.402Z,100.00
2022-10-22T17:51:17.892Z,100.00
2022-10-22T17:55:02.608Z,100.00
2022-10-22T18:02:37.436Z,100.00
2022-10-22T18:06:20.923Z,100.00
2022-10-22T18:13:43.543Z,100.00
2022-10-22T18:17:29.529Z,100.00
2022-10-22T18:21:08.360Z,100.00
2022-10-22T18:24:39.927Z,100.00
2022-10-22T18:28:24.845Z,100.00
2022-10-22T18:36:00.428Z,100.00
2022-10-22T18:39:24.733Z,100.00
2022-10-22T18:43:10.043Z,100.00
2022-10-22T18:46:45.915Z,100.00
2022-10-22T18:50:21.006Z,100.00
2022-10-22T18:54:24.384Z,100.00
2022-10-22T19:01:35.755Z,100.00
2022-10-22T19:05:00.906Z,100.00
2022-10-22T19:08:45.783Z,100.00
2022-10-22T19:12:16.441Z,100.00
2022-10-22T19:20:21.560Z,100.00
2022-10-22T19:24:03.422Z,100.00
2022-10-22T19:27:42.029Z,100.00
2022-10-22T19:31:30.646Z,100.00
2022-10-22T19:35:19.559Z,100.00
2022-10-22T19:38:59.488Z,100.00
2022-10-22T19:46:40.718Z,100.00
2022-10-22T19:50:22.685Z,100.00
2022-10-22T20:02:03.813Z,100.00
2022-10-22T20:05:39.197Z,100.00
2022-10-22T20:09:16.567Z,100.00
2022-10-22T20:13:14.723Z,100.00
2022-10-22T20:17:01.087Z,100.00
2022-10-22T20:20:28.313Z,100.00
2022-10-22T20:24:27.049Z,100.00
2022-10-22T20:40:54.228Z,100.00
2022-10-22T20:48:40.517Z,100.00
2022-10-22T20:52:20.145Z,100.00
2022-10-22T20:56:04.529Z,100.00
2022-10-22T21:00:14.587Z,100.00
2022-10-22T21:03:51.963Z,100.00
